Time;durP1;ratioP1;P1;durP2;ratioP2;P2;SDS_P1;SDS_P2;PMS_P1;PMS_P2;Temp;Humidity;BMP_temperature;BMP_pressure;BME280_temperature;BME280_humidity;BME280_pressure;Samples;Min_cycle;Max_cycle;Signal;HPM_P1;HPM_P2
2024/01/10 00:01:53;;;;;;;24.90;8.27;;;;;;;-3.60;50.99;101664.78;10307783;28;20060;-57
2024/01/10 00:06:55;;;;;;;19.40;6.90;;;;;;;-3.58;50.89;101659.50;10310258;28;20058;-57
2024/01/10 00:11:56;;;;;;;22.48;7.82;;;;;;;-3.59;50.96;101649.91;10306132;28;20050;-57
2024/01/10 00:16:58;;;;;;;23.15;8.25;;;;;;;-3.64;51.16;101657.09;10306360;28;20050;-56
2024/01/10 00:21:59;;;;;;;25.05;7.55;;;;;;;-3.67;50.60;101646.69;10303079;28;20137;-58
2024/01/10 00:27:01;;;;;;;21.63;8.80;;;;;;;-3.68;51.56;101634.44;10304023;28;20046;-56
2024/01/10 00:32:02;;;;;;;21.80;7.95;;;;;;;-3.69;51.49;101630.97;10306624;28;20054;-55
2024/01/10 00:37:04;;;;;;;22.05;7.88;;;;;;;-3.65;51.94;101626.47;10306559;28;20536;-56
2024/01/10 00:42:05;;;;;;;27.98;7.53;;;;;;;-3.70;52.16;101629.25;10305197;28;20069;-58
2024/01/10 00:47:07;;;;;;;21.48;7.93;;;;;;;-3.68;51.86;101623.94;10308288;28;20054;-57
2024/01/10 00:52:08;;;;;;;24.63;8.88;;;;;;;-3.71;52.22;101618.78;10309317;28;20074;-56
2024/01/10 00:57:10;;;;;;;30.35;9.25;;;;;;;-3.76;51.89;101623.34;10309593;28;20047;-56
2024/01/10 01:02:11;;;;;;;29.83;8.50;;;;;;;-3.80;52.22;101617.34;10310231;28;20039;-55
2024/01/10 01:07:13;;;;;;;26.65;8.38;;;;;;;-3.76;52.34;101618.09;10300398;28;20465;-56
2024/01/10 01:12:14;;;;;;;25.88;9.30;;;;;;;-3.81;52.53;101612.97;10295651;28;20039;-55
2024/01/10 01:17:16;;;;;;;22.15;6.93;;;;;;;-3.81;52.57;101621.75;10301104;28;20057;-56
2024/01/10 01:22:18;;;;;;;30.15;10.05;;;;;;;-3.84;52.77;101620.97;10295142;28;20141;-56
2024/01/10 01:27:19;;;;;;;31.05;9.27;;;;;;;-3.83;52.59;101618.31;10295240;28;20050;-55
2024/01/10 01:32:21;;;;;;;21.50;7.80;;;;;;;-3.89;52.66;101631.66;10284823;28;20126;-56
2024/01/10 01:37:22;;;;;;;26.70;7.63;;;;;;;-3.84;53.16;101628.88;10298276;28;20057;-57
2024/01/10 01:42:23;;;;;;;26.98;8.77;;;;;;;-3.92;52.73;101623.88;10300444;28;20058;-57
2024/01/10 01:47:27;;;;;;;22.55;8.55;;;;;;;-3.88;52.90;101619.38;10296565;28;20057;-57
2024/01/10 01:52:30;;;;;;;25.10;8.77;;;;;;;-3.84;52.92;101615.72;10298628;28;20706;-57
2024/01/10 01:57:32;;;;;;;24.17;8.65;;;;;;;-3.90;52.90;101616.78;10300299;28;20053;-57
2024/01/10 02:02:34;;;;;;;24.20;8.35;;;;;;;-3.89;52.72;101609.75;10299641;28;20394;-57
2024/01/10 02:07:36;;;;;;;19.35;8.20;;;;;;;-3.90;53.24;101614.16;10296833;28;20104;-57
2024/01/10 02:12:38;;;;;;;21.48;7.00;;;;;;;-3.91;53.08;101612.47;10295524;28;20120;-57
2024/01/10 02:17:39;;;;;;;20.63;7.22;;;;;;;-3.95;53.13;101607.34;10296148;28;20053;-57
2024/01/10 02:22:41;;;;;;;28.45;9.13;;;;;;;-4.02;53.37;101599.69;10293592;28;20113;-57
2024/01/10 02:27:42;;;;;;;26.05;8.55;;;;;;;-4.05;53.80;101589.31;10302531;28;20049;-57
2024/01/10 02:32:44;;;;;;;22.00;7.93;;;;;;;-4.04;53.62;101583.13;10296732;28;20065;-57
2024/01/10 02:37:45;;;;;;;24.92;10.05;;;;;;;-4.03;53.39;101595.34;10277388;28;20054;-58
2024/01/10 02:42:47;;;;;;;29.95;9.75;;;;;;;-4.03;53.61;101595.34;10295658;28;20050;-58
2024/01/10 02:47:48;;;;;;;37.65;9.45;;;;;;;-4.05;53.49;101586.69;10295784;28;20042;-57
2024/01/10 02:52:50;;;;;;;25.73;8.90;;;;;;;-4.01;53.91;101596.16;10294237;28;20136;-57
2024/01/10 02:57:51;;;;;;;27.80;9.25;;;;;;;-4.01;53.91;101580.41;10292880;28;20046;-57
2024/01/10 03:02:53;;;;;;;31.27;8.45;;;;;;;-4.05;53.86;101578.78;10282193;28;20557;-57
2024/01/10 03:07:54;;;;;;;29.52;8.75;;;;;;;-4.04;53.87;101572.63;10294781;28;20061;-57
2024/01/10 03:12:56;;;;;;;25.10;8.98;;;;;;;-4.04;54.05;101574.41;10289915;28;20043;-57
2024/01/10 03:17:57;;;;;;;26.58;10.48;;;;;;;-4.04;53.81;101564.75;10297495;28;20038;-57
2024/01/10 03:22:59;;;;;;;21.10;8.60;;;;;;;-4.04;54.11;101564.75;10308310;28;20066;-57
2024/01/10 03:28:00;;;;;;;34.47;10.27;;;;;;;-4.03;54.18;101560.34;10293501;28;20058;-57
2024/01/10 03:33:02;;;;;;;23.65;8.93;;;;;;;-4.03;53.84;101562.97;10293422;28;20069;-57
2024/01/10 03:38:04;;;;;;;29.25;8.90;;;;;;;-4.08;54.52;101570.16;10293821;28;20565;-56
2024/01/10 03:43:05;;;;;;;25.67;9.10;;;;;;;-4.09;54.57;101558.78;10295572;28;20074;-57
2024/01/10 03:48:07;;;;;;;25.42;9.10;;;;;;;-4.08;54.39;101551.78;10293798;28;20054;-57
2024/01/10 03:53:08;;;;;;;29.02;9.30;;;;;;;-4.09;54.36;101548.28;10290019;28;20053;-57
2024/01/10 03:58:10;;;;;;;30.02;9.70;;;;;;;-4.10;54.29;101545.72;10291963;28;20425;-58
2024/01/10 04:03:11;;;;;;;22.15;7.97;;;;;;;-4.11;54.63;101542.22;10293867;28;20173;-57
2024/01/10 04:08:13;;;;;;;24.52;8.55;;;;;;;-4.08;54.61;101543.91;10289142;28;20061;-57
2024/01/10 04:13:18;;;;;;;30.92;9.63;;;;;;;-4.09;54.75;101550.06;10300938;28;20058;-57
2024/01/10 04:18:19;;;;;;;33.30;9.82;;;;;;;-4.13;54.25;101551.06;10300019;28;20066;-57
2024/01/10 04:23:21;;;;;;;29.33;9.10;;;;;;;-4.15;54.76;101556.38;10297402;28;20050;-56
2024/01/10 04:28:22;;;;;;;24.60;9.15;;;;;;;-4.14;54.81;101555.47;10301479;28;20100;-57
2024/01/10 04:33:24;;;;;;;26.77;8.65;;;;;;;-4.15;55.31;101561.63;10297184;28;20051;-57
2024/01/10 04:38:26;;;;;;;25.23;8.15;;;;;;;-4.16;54.94;101559.91;10284445;28;20471;-57
2024/01/10 04:43:28;;;;;;;26.35;8.38;;;;;;;-4.20;54.85;101563.56;10301220;28;20359;-57
2024/01/10 04:48:29;;;;;;;27.80;9.52;;;;;;;-4.22;55.37;101557.50;10300159;28;20449;-57
2024/01/10 04:53:31;;;;;;;25.30;8.38;;;;;;;-4.20;55.62;101553.91;10296586;28;20064;-56
2024/01/10 04:58:36;;;;;;;24.95;9.15;;;;;;;-4.19;54.92;101560.00;10299779;28;20038;-56
2024/01/10 05:03:38;;;;;;;25.30;8.80;;;;;;;-4.21;55.72;101554.78;10294878;28;20050;-57
2024/01/10 05:08:39;;;;;;;25.13;8.90;;;;;;;-4.22;55.41;101547.84;10301190;28;20097;-57
2024/01/10 05:13:42;;;;;;;29.95;9.70;;;;;;;-4.20;55.23;101553.91;10297260;28;20058;-57
2024/01/10 05:18:44;;;;;;;22.52;7.88;;;;;;;-4.13;55.37;101543.19;10302931;28;20056;-56
2024/01/10 05:23:45;;;;;;;30.17;9.02;;;;;;;-4.16;55.40;101538.91;10285696;28;20744;-56
2024/01/10 05:28:46;;;;;;;27.33;10.07;;;;;;;-4.17;55.62;101542.44;10302358;28;20619;-56
2024/01/10 05:33:48;;;;;;;22.33;8.98;;;;;;;-4.14;55.54;101547.59;10299336;28;20038;-58
2024/01/10 05:38:50;;;;;;;25.92;10.00;;;;;;;-4.08;55.08;101546.53;10297947;28;20052;-56
2024/01/10 05:43:51;;;;;;;30.17;10.07;;;;;;;-4.08;55.99;101542.13;10298285;28;20051;-56
2024/01/10 05:48:53;;;;;;;36.53;9.70;;;;;;;-4.08;55.66;101547.38;10291692;28;20074;-58
2024/01/10 05:53:54;;;;;;;30.92;9.93;;;;;;;-4.12;55.58;101564.16;10302185;28;20038;-56
2024/01/10 05:58:56;;;;;;;29.75;9.68;;;;;;;-4.17;56.00;101550.31;10303837;28;20720;-56
2024/01/10 06:03:57;;;;;;;30.60;10.13;;;;;;;-4.17;56.14;101550.31;10295767;28;20042;-57
2024/01/10 06:08:59;;;;;;;28.33;8.93;;;;;;;-4.09;55.68;101543.03;10294051;28;20539;-56
2024/01/10 06:14:01;;;;;;;31.23;10.27;;;;;;;-4.06;55.27;101545.56;10300425;28;20053;-56
2024/01/10 06:19:02;;;;;;;29.02;9.93;;;;;;;-4.07;56.09;101541.22;10298630;28;20043;-56
2024/01/10 06:24:04;;;;;;;28.05;10.90;;;;;;;-4.07;55.68;101541.22;10288159;28;20046;-56
2024/01/10 06:29:06;;;;;;;29.35;9.65;;;;;;;-4.08;56.06;101533.41;10299194;28;20053;-55
2024/01/10 06:34:08;;;;;;;32.67;10.15;;;;;;;-4.15;56.41;101537.13;10288040;28;20141;-57
2024/01/10 06:39:12;;;;;;;31.88;9.77;;;;;;;-4.17;56.24;101526.69;10295922;28;20366;-56
2024/01/10 06:44:17;;;;;;;25.90;9.30;;;;;;;-4.09;55.68;101534.28;10294100;28;20042;-56
2024/01/10 06:49:18;;;;;;;29.00;9.02;;;;;;;-4.09;56.05;101547.44;10296215;28;20070;-56
2024/01/10 06:54:20;;;;;;;31.20;10.50;;;;;;;-4.07;56.16;101542.97;10300799;28;20050;-56
2024/01/10 06:59:21;;;;;;;29.35;9.73;;;;;;;-4.04;56.37;101554.25;10288151;28;20053;-56
2024/01/10 07:04:23;;;;;;;29.60;10.25;;;;;;;-4.04;56.33;101554.25;10297508;28;20054;-56
2024/01/10 07:09:26;;;;;;;29.33;10.10;;;;;;;-4.01;56.06;101558.50;10295199;28;20061;-57
2024/01/10 07:14:27;;;;;;;27.70;10.38;;;;;;;-3.99;56.19;101557.56;10278207;28;20042;-57
2024/01/10 07:19:29;;;;;;;34.35;10.73;;;;;;;-3.94;56.18;101565.28;10296828;28;20112;-56
2024/01/10 07:24:30;;;;;;;31.73;9.95;;;;;;;-3.80;55.75;101564.81;10298435;28;20055;-60
2024/01/10 07:29:32;;;;;;;28.63;9.25;;;;;;;-3.68;55.68;101568.78;10293452;28;20051;-61
2024/01/10 07:34:33;;;;;;;38.72;9.43;;;;;;;-3.66;55.85;101564.31;10295382;28;20061;-61
2024/01/10 07:39:35;;;;;;;24.55;8.20;;;;;;;-3.64;55.80;101581.72;10294611;28;20055;-61
2024/01/10 07:44:36;;;;;;;22.98;8.32;;;;;;;-3.56;55.55;101584.09;10297897;28;20049;-61
2024/01/10 07:49:38;;;;;;;29.17;9.85;;;;;;;-3.51;56.00;101586.56;10304187;28;20054;-61
2024/01/10 07:54:39;;;;;;;27.67;8.85;;;;;;;-3.43;55.87;101592.41;10306256;28;20097;-61
2024/01/10 07:59:41;;;;;;;37.20;10.00;;;;;;;-3.33;56.05;101598.19;10308990;28;20043;-61
2024/01/10 08:04:42;;;;;;;27.75;9.05;;;;;;;-3.25;55.93;101599.63;10303680;28;20070;-61
2024/01/10 08:09:44;;;;;;;31.42;10.05;;;;;;;-3.15;55.91;101609.81;10310935;28;20121;-61
2024/01/10 08:14:45;;;;;;;29.10;10.02;;;;;;;-3.01;55.68;101605.72;10301602;28;20121;-61
2024/01/10 08:19:47;;;;;;;27.30;9.40;;;;;;;-2.88;55.14;101608.75;10303088;28;20051;-62
2024/01/10 08:24:49;;;;;;;30.20;10.07;;;;;;;-2.70;55.55;101615.09;10305414;28;20097;-60
2024/01/10 08:29:51;;;;;;;28.33;9.73;;;;;;;-2.54;55.48;101606.59;10298169;28;20529;-61
2024/01/10 08:34:52;;;;;;;29.05;10.55;;;;;;;-2.39;55.30;101603.34;10289401;28;20038;-61
2024/01/10 08:39:54;;;;;;;33.10;10.00;;;;;;;-2.22;55.31;101598.25;10308596;28;20122;-61
2024/01/10 08:44:55;;;;;;;27.42;10.90;;;;;;;-2.12;55.38;101592.59;10306201;28;20047;-61
2024/01/10 08:49:57;;;;;;;27.48;9.77;;;;;;;-2.02;55.44;101596.56;10324719;28;20065;-59
2024/01/10 08:54:58;;;;;;;34.72;10.65;;;;;;;-1.88;55.47;101603.88;10324549;28;20046;-60
2024/01/10 09:00:00;;;;;;;31.90;11.57;;;;;;;-1.70;54.88;101602.25;10335118;28;20074;-60
2024/01/10 09:05:03;;;;;;;31.10;10.38;;;;;;;-1.60;55.21;101604.44;10334496;28;20060;-59
2024/01/10 09:10:05;;;;;;;27.80;9.95;;;;;;;-1.53;55.07;101612.91;10332789;28;20070;-60
2024/01/10 09:15:12;;;;;;;31.08;10.52;;;;;;;-1.44;54.91;101614.31;10337453;28;20065;-60
2024/01/10 09:20:14;;;;;;;35.05;11.48;;;;;;;-1.48;54.68;101624.13;10337009;28;20042;-59
2024/01/10 09:25:16;;;;;;;25.02;11.20;;;;;;;-1.41;54.68;101617.66;10335842;28;20034;-59
2024/01/10 09:30:18;;;;;;;38.72;11.82;;;;;;;-1.34;54.85;101620.00;10340734;28;20042;-60
2024/01/10 09:35:19;;;;;;;33.65;12.00;;;;;;;-1.27;54.31;101627.59;10341041;28;20110;-59
2024/01/10 09:40:21;;;;;;;32.65;10.75;;;;;;;-1.26;54.27;101633.75;10328056;28;20289;-60
2024/01/10 09:45:23;;;;;;;40.78;13.02;;;;;;;-1.12;54.39;101628.69;10344623;28;20038;-59
2024/01/10 09:50:25;;;;;;;32.58;11.63;;;;;;;-1.08;54.11;101632.91;10342746;28;20057;-59
2024/01/10 09:55:33;;;;;;;35.50;12.52;;;;;;;-0.92;53.75;101622.50;10335339;28;20056;-63
2024/01/10 10:00:36;;;;;;;33.30;11.68;;;;;;;-0.83;53.76;101627.38;10321679;28;20051;-63
2024/01/10 10:05:42;;;;;;;30.63;12.00;;;;;;;-0.76;53.98;101624.44;10296277;28;20121;-63
2024/01/10 10:10:44;;;;;;;38.47;12.48;;;;;;;-0.62;53.31;101630.78;10280921;28;20486;-63
2024/01/10 10:15:57;;;;;;;32.70;11.73;;;;;;;-0.58;53.87;101628.84;10296660;28;20038;-63
2024/01/10 10:21:12;;;;;;;31.00;12.10;;;;;;;-0.49;53.45;101619.66;10295911;28;20046;-63
2024/01/10 10:26:20;;;;;;;27.25;11.80;;;;;;;-0.44;53.21;101615.00;10271234;28;20573;-63
2024/01/10 10:31:23;;;;;;;35.05;12.05;;;;;;;-0.33;53.58;101609.22;10285513;28;20067;-64
2024/01/10 10:36:25;;;;;;;34.08;13.23;;;;;;;-0.32;53.74;101606.47;10288415;28;20045;-62
2024/01/10 10:41:30;;;;;;;29.83;11.82;;;;;;;-0.26;53.14;101600.91;10294481;28;20298;-65
2024/01/10 10:46:33;;;;;;;33.58;12.25;;;;;;;-0.07;52.54;101597.34;10298691;28;20122;-65
2024/01/10 10:51:36;;;;;;;36.38;13.45;;;;;;;-0.10;52.95;101602.78;10296787;28;20057;-65
2024/01/10 10:56:38;;;;;;;31.10;11.93;;;;;;;0.14;52.59;101596.28;10296998;28;20050;-64
2024/01/10 11:01:41;;;;;;;33.47;12.43;;;;;;;0.34;52.43;101586.47;10303909;28;20043;-65
2024/01/10 11:06:42;;;;;;;29.55;11.55;;;;;;;0.44;52.23;101592.13;10303531;28;20050;-66
2024/01/10 11:12:08;;;;;;;34.50;13.45;;;;;;;0.45;52.47;101583.25;10300388;28;20057;-66
2024/01/10 11:17:20;;;;;;;30.48;12.82;;;;;;;0.47;52.46;101579.56;10301616;28;20101;-66
2024/01/10 11:23:10;;;;;;;32.58;11.73;;;;;;;0.63;52.70;101573.47;10295742;28;20050;-65
2024/01/10 11:28:13;;;;;;;36.05;12.45;;;;;;;0.92;51.45;101571.94;10269093;28;20047;-68
2024/01/10 11:33:30;;;;;;;28.17;11.23;;;;;;;0.97;51.54;101557.50;10304808;28;20340;-65
2024/01/10 11:38:32;;;;;;;34.03;10.70;;;;;;;1.13;51.89;101559.31;10333521;28;20050;-70
2024/01/10 11:43:34;;;;;;;32.22;10.95;;;;;;;1.31;51.02;101549.47;10347456;28;20101;-70
2024/01/10 11:48:37;;;;;;;32.67;11.50;;;;;;;1.65;51.48;101544.91;10344417;28;20052;-70
2024/01/10 11:53:46;;;;;;;32.50;12.02;;;;;;;2.01;50.39;101541.88;10337891;28;20093;-70
2024/01/10 11:58:54;;;;;;;28.63;10.70;;;;;;;2.21;50.00;101530.06;10322105;28;20051;-68
2024/01/10 12:03:57;;;;;;;30.20;11.57;;;;;;;2.46;50.01;101528.59;10306678;28;20038;-67
2024/01/10 12:09:15;;;;;;;35.03;12.32;;;;;;;2.35;50.58;101527.44;10299441;28;20138;-67
2024/01/10 12:14:17;;;;;;;33.92;12.25;;;;;;;2.53;49.56;101522.81;10296429;28;20574;-67
2024/01/10 12:19:19;;;;;;;32.63;13.05;;;;;;;2.66;49.83;101517.56;10303571;28;20062;-66
2024/01/10 12:24:21;;;;;;;27.55;11.65;;;;;;;2.78;49.67;101519.50;10283208;28;20069;-65
2024/01/10 12:29:24;;;;;;;30.25;11.15;;;;;;;2.69;49.40;101519.22;10302851;28;20849;-65
2024/01/10 12:34:25;;;;;;;34.95;13.43;;;;;;;2.75;49.07;101519.66;10302535;28;20054;-66
2024/01/10 12:39:31;;;;;;;30.67;13.18;;;;;;;2.97;49.07;101513.84;10282223;28;20101;-65
2024/01/10 12:44:33;;;;;;;33.90;12.77;;;;;;;3.12;48.72;101512.03;10303305;28;20133;-65
2024/01/10 12:49:37;;;;;;;30.73;12.25;;;;;;;3.22;48.82;101511.41;10304438;28;20046;-65
2024/01/10 12:54:40;;;;;;;34.75;13.13;;;;;;;3.42;48.15;101508.31;10305874;28;20556;-64
2024/01/10 12:59:41;;;;;;;30.60;11.75;;;;;;;3.63;47.81;101514.00;10290024;28;20406;-63
2024/01/10 13:04:42;;;;;;;32.28;14.10;;;;;;;3.68;47.84;101503.91;10311796;28;20046;-65
2024/01/10 13:09:44;;;;;;;29.08;11.18;;;;;;;3.70;48.03;101506.47;10304585;28;20134;-65
2024/01/10 13:14:45;;;;;;;28.92;11.13;;;;;;;3.54;48.01;101501.34;10306373;28;20133;-65
2024/01/10 13:19:48;;;;;;;28.17;11.82;;;;;;;3.45;47.87;101497.47;10288256;28;20687;-64
2024/01/10 13:24:50;;;;;;;31.38;10.82;;;;;;;3.42;48.03;101500.34;10291299;28;20034;-65
2024/01/10 13:29:52;;;;;;;29.15;12.23;;;;;;;3.31;47.85;101497.53;10293555;28;20473;-67
2024/01/10 13:34:54;;;;;;;27.85;10.35;;;;;;;3.08;47.95;101504.31;10288128;28;20038;-67
2024/01/10 13:39:55;;;;;;;27.27;11.93;;;;;;;2.98;48.03;101501.41;10298561;28;20517;-66
2024/01/10 13:44:57;;;;;;;28.15;11.35;;;;;;;2.93;48.05;101503.53;10280872;28;20209;-66
2024/01/10 13:49:58;;;;;;;27.13;11.20;;;;;;;2.80;47.86;101498.13;10284149;28;20078;-66
2024/01/10 13:55:00;;;;;;;29.60;11.43;;;;;;;2.75;47.92;101506.38;10293038;28;20104;-67
2024/01/10 14:00:04;;;;;;;25.23;9.90;;;;;;;2.64;47.92;101508.84;10297112;28;20053;-67
2024/01/10 14:05:05;;;;;;;25.25;9.70;;;;;;;2.57;47.97;101515.53;10295451;28;20046;-67
2024/01/10 14:10:07;;;;;;;28.75;10.23;;;;;;;2.56;48.36;101513.78;10311326;28;20544;-67
2024/01/10 14:15:09;;;;;;;24.45;9.80;;;;;;;2.56;47.76;101508.50;10286596;28;20035;-65
2024/01/10 14:20:12;;;;;;;23.60;10.90;;;;;;;2.41;48.15;101520.91;10298915;28;20108;-66
2024/01/10 14:25:15;;;;;;;27.25;9.93;;;;;;;2.42;48.08;101521.78;10298066;28;20069;-66
2024/01/10 14:30:16;;;;;;;24.30;9.70;;;;;;;2.40;47.62;101513.03;10283664;28;20069;-66
2024/01/10 14:35:18;;;;;;;22.42;8.82;;;;;;;2.30;48.15;101515.41;10288646;28;20251;-65
2024/01/10 14:40:23;;;;;;;25.67;9.82;;;;;;;2.25;48.03;101513.03;10313143;28;20110;-66
2024/01/10 14:45:25;;;;;;;19.00;8.63;;;;;;;2.21;48.12;101519.47;10332906;28;20051;-65
2024/01/10 14:50:26;;;;;;;32.88;9.98;;;;;;;2.20;47.84;101519.56;10319540;28;20125;-69
2024/01/10 14:55:28;;;;;;;25.55;9.20;;;;;;;2.13;48.46;101525.25;10310723;28;20107;-67
2024/01/10 15:00:30;;;;;;;21.65;9.98;;;;;;;2.05;48.21;101532.78;10328780;28;20616;-67
2024/01/10 15:05:31;;;;;;;24.52;9.48;;;;;;;1.94;48.53;101536.09;10342824;28;20046;-67
2024/01/10 15:10:33;;;;;;;27.92;10.85;;;;;;;1.87;48.51;101541.84;10333639;28;20047;-67
2024/01/10 15:15:38;;;;;;;23.40;9.45;;;;;;;1.76;48.73;101540.69;10291982;28;20057;-68
2024/01/10 15:20:40;;;;;;;31.98;10.45;;;;;;;1.68;48.54;101545.59;10318520;28;20051;-67
2024/01/10 15:25:42;;;;;;;30.05;10.75;;;;;;;1.57;48.71;101553.28;10313907;28;20336;-68
2024/01/10 15:30:43;;;;;;;31.58;10.65;;;;;;;1.43;49.04;101550.59;10305445;28;20106;-67
2024/01/10 15:35:49;;;;;;;28.42;10.75;;;;;;;1.29;49.63;101557.50;10325978;28;20089;-68
2024/01/10 15:40:50;;;;;;;26.38;11.48;;;;;;;1.12;48.75;101563.72;10317663;28;20047;-68
2024/01/10 15:45:51;;;;;;;34.00;12.77;;;;;;;0.97;49.73;101565.44;10273839;28;20043;-68
2024/01/10 15:50:55;;;;;;;34.90;14.10;;;;;;;0.87;49.69;101569.53;10275873;28;20043;-67
2024/01/10 15:55:57;;;;;;;29.67;11.05;;;;;;;0.74;49.96;101585.19;10289549;28;20047;-67
2024/01/10 16:00:59;;;;;;;33.00;12.70;;;;;;;0.64;49.93;101594.56;10291787;28;20118;-65
2024/01/10 16:06:02;;;;;;;29.25;11.50;;;;;;;0.52;49.94;101588.13;10288746;28;20082;-67
2024/01/10 16:11:04;;;;;;;29.00;10.95;;;;;;;0.38;50.76;101590.66;10271677;28;20047;-70
2024/01/10 16:16:08;;;;;;;32.90;10.68;;;;;;;0.32;50.95;101599.75;10260886;28;20043;-63
2024/01/10 16:21:10;;;;;;;32.22;12.60;;;;;;;0.17;50.66;101601.38;10261827;28;20535;-62
2024/01/10 16:26:11;;;;;;;34.45;12.65;;;;;;;0.04;51.42;101602.09;10265974;28;20034;-62
2024/01/10 16:31:13;;;;;;;31.05;11.82;;;;;;;-0.08;51.31;101608.84;10265624;28;20062;-62
2024/01/10 16:36:14;;;;;;;33.50;12.95;;;;;;;-0.21;51.74;101609.44;10267487;28;20043;-62
2024/01/10 16:41:16;;;;;;;35.17;13.00;;;;;;;-0.30;51.50;101601.13;10254994;28;20382;-61
2024/01/10 16:46:17;;;;;;;29.42;12.90;;;;;;;-0.40;52.05;101611.28;10262074;28;20054;-63
2024/01/10 16:51:19;;;;;;;38.83;12.75;;;;;;;-0.49;52.06;101607.28;10262841;28;20581;-62
2024/01/10 16:56:20;;;;;;;47.05;13.02;;;;;;;-0.62;52.46;101608.81;10260440;28;20053;-62
2024/01/10 17:01:22;;;;;;;46.70;13.02;;;;;;;-0.72;52.64;101613.66;10287283;23;20055;-61
2024/01/10 17:06:23;;;;;;;36.50;13.55;;;;;;;-0.81;52.38;101612.31;10455770;28;20401;-60
2024/01/10 17:11:25;;;;;;;36.20;12.50;;;;;;;-0.85;53.15;101623.94;10478511;28;20040;-61
2024/01/10 17:16:27;;;;;;;35.75;13.00;;;;;;;-0.94;53.51;101632.28;10444334;28;20110;-61
2024/01/10 17:21:28;;;;;;;48.85;14.90;;;;;;;-1.00;53.37;101636.06;10482169;28;20056;-63
2024/01/10 17:26:29;;;;;;;45.28;15.77;;;;;;;-1.06;53.75;101638.13;10465977;28;20391;-62
2024/01/10 17:31:31;;;;;;;37.55;15.70;;;;;;;-1.11;53.69;101634.81;10459925;28;20097;-62
2024/01/10 17:36:38;;;;;;;43.40;15.35;;;;;;;-1.20;53.96;101636.09;10477388;28;20044;-64
2024/01/10 17:41:40;;;;;;;36.85;13.65;;;;;;;-1.27;54.15;101643.41;10475405;28;20048;-61
2024/01/10 17:46:44;;;;;;;43.72;15.10;;;;;;;-1.31;54.23;101641.84;10446417;28;20127;-61
2024/01/10 17:51:45;;;;;;;39.90;13.82;;;;;;;-1.33;54.40;101638.41;10453417;28;20523;-62
2024/01/10 17:56:47;;;;;;;35.60;13.75;;;;;;;-1.42;54.56;101639.69;10459440;28;20052;-60
2024/01/10 18:01:49;;;;;;;39.88;14.52;;;;;;;-1.48;54.07;101645.22;10463795;28;20045;-62
2024/01/10 18:06:51;;;;;;;36.63;14.93;;;;;;;-1.53;54.50;101638.44;10420144;28;20262;-61
2024/01/10 18:11:53;;;;;;;45.92;17.17;;;;;;;-1.58;54.81;101635.97;10420455;28;20492;-62
2024/01/10 18:16:55;;;;;;;35.13;15.63;;;;;;;-1.62;54.82;101640.56;10422158;28;20056;-61
2024/01/10 18:21:57;;;;;;;45.20;14.95;;;;;;;-1.67;55.19;101634.59;10418791;28;20053;-61
2024/01/10 18:26:59;;;;;;;37.65;13.32;;;;;;;-1.69;55.13;101633.81;10416772;28;20040;-62
2024/01/10 18:32:00;;;;;;;50.25;13.45;;;;;;;-1.69;54.97;101635.59;10406300;28;20045;-60
2024/01/10 18:37:02;;;;;;;39.63;13.77;;;;;;;-1.74;55.42;101640.19;10418498;28;20044;-61
2024/01/10 18:42:03;;;;;;;36.70;11.80;;;;;;;-1.78;55.81;101641.25;10419938;28;20052;-61
2024/01/10 18:47:07;;;;;;;33.42;12.55;;;;;;;-1.86;55.65;101637.16;10406705;28;20055;-60
2024/01/10 18:52:09;;;;;;;31.23;14.13;;;;;;;-1.90;56.05;101648.75;10423702;28;20044;-60
2024/01/10 18:57:12;;;;;;;33.80;12.65;;;;;;;-1.94;56.00;101648.94;10410983;28;20052;-62
2024/01/10 19:02:16;;;;;;;35.33;11.77;;;;;;;-1.99;55.91;101649.16;10418253;28;20068;-60
2024/01/10 19:07:17;;;;;;;29.90;11.88;;;;;;;-2.05;56.16;101650.25;10405577;28;20037;-62
2024/01/10 19:12:19;;;;;;;34.47;13.30;;;;;;;-2.08;56.31;101654.78;10423318;28;20041;-61
2024/01/10 19:17:20;;;;;;;35.53;11.25;;;;;;;-2.15;56.43;101648.91;10415849;28;20045;-59
2024/01/10 19:22:21;;;;;;;37.55;12.90;;;;;;;-2.18;56.42;101659.56;10415565;28;20037;-60
2024/01/10 19:27:24;;;;;;;34.22;12.80;;;;;;;-2.22;56.72;101664.09;10419802;28;20037;-62
2024/01/10 19:32:25;;;;;;;37.78;13.35;;;;;;;-2.29;56.82;101660.00;10410234;28;20045;-60
2024/01/10 19:37:29;;;;;;;46.47;15.82;;;;;;;-2.30;57.10;101668.81;10419700;28;20116;-59
2024/01/10 19:42:31;;;;;;;40.42;13.85;;;;;;;-2.31;57.09;101668.84;10427630;28;20056;-59
2024/01/10 19:47:34;;;;;;;34.22;12.23;;;;;;;-2.36;57.28;101679.59;10433481;28;20051;-61
2024/01/10 19:52:35;;;;;;;25.08;11.73;;;;;;;-2.42;57.27;101678.03;10419922;28;20042;-60
2024/01/10 19:57:37;;;;;;;32.95;12.00;;;;;;;-2.44;57.62;101686.91;10433086;28;20045;-60
2024/01/10 20:02:38;;;;;;;29.35;12.40;;;;;;;-2.49;58.05;101683.59;10418898;28;20045;-60
2024/01/10 20:07:41;;;;;;;36.63;12.27;;;;;;;-2.46;58.00;101686.13;10421987;28;20038;-59
2024/01/10 20:12:42;;;;;;;34.28;13.15;;;;;;;-2.41;57.81;101684.16;10423320;28;20073;-59
2024/01/10 20:17:44;;;;;;;33.90;14.30;;;;;;;-2.38;57.67;101681.41;10414550;28;20040;-60
2024/01/10 20:22:46;;;;;;;37.00;13.60;;;;;;;-2.38;57.81;101683.19;10420633;28;20165;-59
2024/01/10 20:27:47;;;;;;;38.05;14.32;;;;;;;-2.35;57.80;101689.22;10424118;28;20137;-60
2024/01/10 20:32:49;;;;;;;35.33;13.50;;;;;;;-2.30;57.98;101689.88;10423823;28;20047;-60
2024/01/10 20:37:51;;;;;;;35.35;13.20;;;;;;;-2.26;57.91;101685.34;10422380;28;20037;-62
2024/01/10 20:42:52;;;;;;;41.95;13.85;;;;;;;-2.26;58.26;101683.56;10422449;28;20044;-60
2024/01/10 20:47:54;;;;;;;28.75;12.77;;;;;;;-2.24;58.30;101681.72;10428746;28;20124;-60
2024/01/10 20:52:55;;;;;;;41.17;13.95;;;;;;;-2.23;58.17;101679.97;10424812;28;20049;-61
2024/01/10 20:57:57;;;;;;;35.88;14.32;;;;;;;-2.21;58.63;101678.97;10422942;28;20048;-60
2024/01/10 21:02:58;;;;;;;35.78;12.30;;;;;;;-2.23;57.99;101686.09;10406919;28;20079;-59
2024/01/10 22:01:30;;;;;;;43.75;15.30;;;;;;;-3.07;59.58;101692.75;10421235;28;20058;-61
2024/01/10 22:06:32;;;;;;;83.95;22.50;;;;;;;-3.03;59.15;101696.97;10392989;28;20744;-62
2024/01/10 22:11:34;;;;;;;74.80;21.77;;;;;;;-3.05;59.32;101695.31;10392164;28;20128;-60
2024/01/10 22:16:36;;;;;;;62.97;19.17;;;;;;;-3.06;59.29;101697.09;10414943;22;20079;-66
2024/01/10 22:21:41;;;;;;;54.28;15.75;;;;;;;-3.08;59.55;101698.06;10492616;22;20075;-59
2024/01/10 22:26:43;;;;;;;48.33;15.57;;;;;;;-3.07;59.50;101702.41;10505614;28;20580;-60
2024/01/10 22:31:44;;;;;;;41.55;14.18;;;;;;;-3.07;59.46;101699.78;10503716;28;20607;-59
2024/01/10 22:36:46;;;;;;;33.05;13.55;;;;;;;-3.05;59.62;101703.22;10504403;28;20654;-60
2024/01/10 22:41:50;;;;;;;32.42;12.13;;;;;;;-3.00;59.67;101707.41;10504024;28;20059;-59
2024/01/10 22:46:52;;;;;;;35.00;11.98;;;;;;;-2.94;59.63;101703.69;10502910;28;20132;-61
2024/01/10 22:51:53;;;;;;;36.25;12.90;;;;;;;-2.90;59.84;101702.69;10506523;28;20536;-60
2024/01/10 22:56:55;;;;;;;32.22;12.38;;;;;;;-2.86;59.94;101700.78;10502710;28;20048;-60
2024/01/10 23:01:57;;;;;;;40.42;15.73;;;;;;;-2.83;60.17;101703.28;10507350;28;20045;-61
2024/01/10 23:06:58;;;;;;;37.42;13.63;;;;;;;-2.82;60.04;101699.75;10504716;28;20052;-61
2024/01/10 23:12:00;;;;;;;39.78;15.30;;;;;;;-2.81;60.24;101690.94;10505098;28;20509;-63
2024/01/10 23:17:01;;;;;;;37.15;13.10;;;;;;;-2.82;60.08;101697.13;10502364;28;20040;-63
2024/01/10 23:22:03;;;;;;;36.90;13.35;;;;;;;-2.83;60.14;101698.88;10503297;28;20523;-62
2024/01/10 23:27:04;;;;;;;37.40;11.88;;;;;;;-2.83;60.36;101706.78;10496665;28;20044;-60
2024/01/10 23:32:07;;;;;;;39.58;13.05;;;;;;;-2.85;60.74;101695.44;10511280;28;20062;-60
2024/01/10 23:37:09;;;;;;;31.58;11.85;;;;;;;-2.71;60.77;101696.72;10516406;28;20124;-59
2024/01/10 23:42:10;;;;;;;41.25;13.05;;;;;;;-2.64;60.35;101706.13;10505656;28;20047;-59